createdAt,value
2023-04-16T00:00:42.027Z,100.00
2023-04-16T00:03:09.567Z,100.00
2023-04-16T00:05:37.152Z,100.00
2023-04-16T00:08:05.854Z,100.00
2023-04-16T00:10:33.453Z,100.00
2023-04-16T00:13:00.809Z,100.00
2023-04-16T00:15:28.352Z,100.00
2023-04-16T00:17:55.740Z,100.00
2023-04-16T00:20:23.252Z,100.00
2023-04-16T00:22:52.318Z,100.00
2023-04-16T00:25:21.544Z,100.00
2023-04-16T00:27:48.918Z,100.00
2023-04-16T00:30:16.605Z,100.00
2023-04-16T00:32:44.027Z,100.00
2023-04-16T00:35:11.483Z,100.00
2023-04-16T00:37:38.833Z,100.00
2023-04-16T00:40:07.572Z,100.00
2023-04-16T00:42:37.022Z,100.00
2023-04-16T00:45:05.143Z,100.00
2023-04-16T00:47:32.768Z,100.00
2023-04-16T00:50:00.446Z,100.00
2023-04-16T00:52:29.439Z,100.00
2023-04-16T00:54:56.989Z,100.00
2023-04-16T00:57:24.561Z,100.00
2023-04-16T00:59:53.634Z,100.00
2023-04-16T01:02:21.230Z,100.00
2023-04-16T01:04:48.845Z,100.00
2023-04-16T01:07:16.287Z,100.00
2023-04-16T01:09:43.649Z,100.00
2023-04-16T01:12:11.124Z,100.00
2023-04-16T01:14:38.525Z,100.00
2023-04-16T01:17:07.282Z,100.00
2023-04-16T01:19:36.249Z,100.00
2023-04-16T01:22:05.161Z,100.00
2023-04-16T01:24:32.793Z,100.00
2023-04-16T01:27:00.181Z,100.00
2023-04-16T01:29:27.993Z,100.00
2023-04-16T01:31:55.378Z,100.00
2023-04-16T01:34:23.104Z,100.00
2023-04-16T01:36:51.910Z,100.00
2023-04-16T01:39:20.954Z,100.00
2023-04-16T01:41:48.359Z,100.00
2023-04-16T01:44:15.723Z,100.00
2023-04-16T01:46:44.616Z,100.00
2023-04-16T01:49:12.253Z,100.00
2023-04-16T01:51:39.771Z,100.00
2023-04-16T01:54:07.159Z,100.00
2023-04-16T01:56:35.887Z,100.00
2023-04-16T01:59:03.255Z,100.00
2023-04-16T02:01:30.766Z,100.00
2023-04-16T02:03:58.684Z,100.00
2023-04-16T02:06:27.350Z,100.00
2023-04-16T02:08:54.762Z,100.00
2023-04-16T02:11:22.199Z,100.00
2023-04-16T02:13:50.917Z,100.00
2023-04-16T02:16:18.321Z,100.00
2023-04-16T02:18:45.861Z,100.00
2023-04-16T02:21:13.934Z,100.00
2023-04-16T02:23:41.648Z,100.00
2023-04-16T02:26:09.002Z,100.00
2023-04-16T02:28:36.447Z,100.00
2023-04-16T02:31:05.450Z,100.00
2023-04-16T02:33:32.984Z,100.00
2023-04-16T02:36:00.405Z,100.00
2023-04-16T02:38:27.763Z,100.00
2023-04-16T02:40:55.151Z,100.00
2023-04-16T02:43:22.645Z,100.00
2023-04-16T02:45:50.118Z,100.00
2023-04-16T02:48:18.904Z,100.00
2023-04-16T02:50:46.294Z,100.00
2023-04-16T02:53:14.037Z,100.00
2023-04-16T02:55:41.445Z,100.00
2023-04-16T02:58:09.174Z,100.00
2023-04-16T03:00:36.549Z,100.00
2023-04-16T03:03:04.462Z,100.00
2023-04-16T03:05:33.206Z,100.00
2023-04-16T03:08:00.564Z,100.00
2023-04-16T03:10:28.194Z,100.00
2023-04-16T03:12:55.620Z,100.00
2023-04-16T03:15:22.997Z,100.00
2023-04-16T03:17:50.718Z,100.00
2023-04-16T03:20:19.109Z,100.00
2023-04-16T03:22:48.439Z,100.00
2023-04-16T03:25:15.885Z,100.00
2023-04-16T03:27:43.332Z,100.00
2023-04-16T03:30:13.040Z,100.00
2023-04-16T03:32:41.176Z,100.00
2023-04-16T03:35:10.377Z,100.00
2023-04-16T03:37:37.834Z,100.00
2023-04-16T03:40:08.301Z,100.00
2023-04-16T03:42:36.082Z,100.00
2023-04-16T03:45:03.733Z,100.00
2023-04-16T03:47:31.162Z,100.00
2023-04-16T03:49:58.577Z,100.00
2023-04-16T03:52:25.967Z,100.00
2023-04-16T03:54:53.559Z,100.00
2023-04-16T03:57:22.279Z,100.00
2023-04-16T03:59:49.646Z,100.00
2023-04-16T04:02:17.149Z,100.00
2023-04-16T04:04:44.704Z,100.00
2023-04-16T04:07:12.184Z,100.00
2023-04-16T04:09:39.554Z,100.00
2023-04-16T04:12:06.918Z,100.00
2023-04-16T04:14:39.674Z,100.00
2023-04-16T04:17:07.188Z,100.00
2023-04-16T04:19:34.584Z,100.00
2023-04-16T04:22:01.977Z,100.00
2023-04-16T04:24:29.398Z,100.00
2023-04-16T04:26:57.430Z,100.00
2023-04-16T04:29:24.900Z,100.00
2023-04-16T04:31:55.147Z,100.00
2023-04-16T04:34:22.618Z,100.00
2023-04-16T04:36:49.979Z,100.00
2023-04-16T04:39:17.370Z,100.00
2023-04-16T04:41:44.771Z,100.00
2023-04-16T04:44:12.209Z,100.00
2023-04-16T04:46:40.985Z,100.00
2023-04-16T04:49:09.909Z,100.00
2023-04-16T04:51:37.526Z,100.00
2023-04-16T04:54:05.400Z,100.00
2023-04-16T04:56:32.793Z,100.00
2023-04-16T04:59:00.183Z,100.00
2023-04-16T05:01:27.580Z,100.00
2023-04-16T05:03:55.086Z,100.00
2023-04-16T05:06:24.202Z,100.00
2023-04-16T05:08:51.552Z,100.00
2023-04-16T05:11:18.898Z,100.00
2023-04-16T05:13:46.519Z,100.00
2023-04-16T05:16:13.952Z,100.00
2023-04-16T05:18:41.390Z,100.00
2023-04-16T05:21:08.747Z,100.00
2023-04-16T05:23:37.470Z,100.00
2023-04-16T05:26:04.907Z,100.00
2023-04-16T05:28:32.359Z,100.00
2023-04-16T05:30:59.728Z,99.35
2023-04-16T05:33:27.148Z,99.15
2023-04-16T05:35:54.514Z,99.38
2023-04-16T05:38:21.892Z,100.00
2023-04-16T05:40:50.661Z,100.00
2023-04-16T05:43:18.449Z,100.00
2023-04-16T05:45:45.836Z,100.00
2023-04-16T05:48:13.828Z,100.00
2023-04-16T05:50:41.262Z,99.34
2023-04-16T05:53:09.816Z,100.00
2023-04-16T05:55:37.572Z,99.66
2023-04-16T05:58:06.387Z,98.37
2023-04-16T06:00:34.095Z,98.84
2023-04-16T06:03:01.828Z,97.55
2023-04-16T06:05:30.200Z,95.58
2023-04-16T06:07:57.776Z,95.05
2023-04-16T06:10:25.292Z,94.46
2023-04-16T06:12:52.654Z,93.51
2023-04-16T06:15:21.350Z,93.37
2023-04-16T06:17:48.783Z,91.73
2023-04-16T06:20:16.479Z,89.97
2023-04-16T06:22:43.986Z,89.88
2023-04-16T06:25:11.586Z,89.10
2023-04-16T06:27:39.124Z,90.89
2023-04-16T06:30:12.412Z,90.83
2023-04-16T06:32:41.381Z,91.01
2023-04-16T06:35:09.578Z,91.15
2023-04-16T06:37:36.965Z,89.68
2023-04-16T06:40:05.406Z,89.30
2023-04-16T06:42:32.886Z,88.32
2023-04-16T06:45:00.602Z,88.48
2023-04-16T06:47:28.034Z,87.39
2023-04-16T06:49:56.850Z,88.31
2023-04-16T06:52:24.324Z,86.66
2023-04-16T06:54:51.798Z,84.10
2023-04-16T06:57:19.198Z,82.67
2023-04-16T06:59:46.579Z,82.49
2023-04-16T07:02:14.229Z,81.19
2023-04-16T07:04:41.808Z,80.97
2023-04-16T07:07:10.737Z,81.67
2023-04-16T07:09:38.120Z,82.68
2023-04-16T07:12:05.754Z,82.55
2023-04-16T07:14:33.096Z,82.28
2023-04-16T07:17:00.477Z,80.29
2023-04-16T07:19:30.494Z,79.52
2023-04-16T07:21:57.869Z,77.92
2023-04-16T07:24:26.643Z,77.20
2023-04-16T07:26:54.089Z,76.09
2023-04-16T07:29:21.515Z,76.67
2023-04-16T07:31:49.054Z,80.55
2023-04-16T07:34:16.540Z,80.09
2023-04-16T07:36:43.921Z,77.46
2023-04-16T07:39:13.077Z,76.30
2023-04-16T07:41:41.911Z,76.38
2023-04-16T07:44:09.334Z,77.50
2023-04-16T07:46:46.218Z,75.28
2023-04-16T07:49:15.122Z,73.65
2023-04-16T07:51:42.621Z,71.28
2023-04-16T07:54:10.065Z,71.50
2023-04-16T07:56:37.444Z,71.68
2023-04-16T07:59:19.086Z,73.70
2023-04-16T08:01:50.090Z,73.35
2023-04-16T08:04:23.028Z,71.46
2023-04-16T08:06:50.740Z,70.19
2023-04-16T08:09:18.854Z,70.74
2023-04-16T08:11:49.308Z,69.83
2023-04-16T08:14:18.946Z,67.79
2023-04-16T08:16:47.325Z,71.33
2023-04-16T08:19:15.132Z,69.89
2023-04-16T08:21:43.248Z,68.57
2023-04-16T08:24:11.576Z,68.38
2023-04-16T08:26:39.476Z,69.02
2023-04-16T08:29:07.487Z,71.13
2023-04-16T08:31:36.935Z,71.53
2023-04-16T08:34:04.849Z,72.25
2023-04-16T08:36:36.049Z,71.51
2023-04-16T08:39:04.254Z,71.39
2023-04-16T08:41:34.133Z,70.41
2023-04-16T08:44:10.185Z,69.11
2023-04-16T08:46:40.338Z,68.87
2023-04-16T08:49:09.741Z,67.61
2023-04-16T08:51:40.633Z,71.18
2023-04-16T08:54:13.301Z,69.58
2023-04-16T08:56:43.322Z,68.30
2023-04-16T08:59:12.019Z,70.73
2023-04-16T09:01:42.137Z,69.50
2023-04-16T09:04:10.212Z,73.33
2023-04-16T09:06:38.906Z,68.87
2023-04-16T09:09:08.157Z,68.32
2023-04-16T09:11:36.050Z,67.20
2023-04-16T09:14:04.526Z,70.77
2023-04-16T09:16:34.773Z,68.07
2023-04-16T09:19:03.815Z,68.62
2023-04-16T09:21:32.162Z,72.85
2023-04-16T09:24:01.004Z,70.11
2023-04-16T09:26:28.934Z,70.13
2023-04-16T09:28:56.345Z,70.47
2023-04-16T09:31:23.937Z,70.28
2023-04-16T09:34:06.476Z,68.17
2023-04-16T09:36:34.995Z,65.51
2023-04-16T09:39:03.673Z,66.12
2023-04-16T09:41:32.827Z,65.15
2023-04-16T09:44:01.929Z,65.16
2023-04-16T09:46:31.940Z,65.05
2023-04-16T09:48:59.386Z,64.92
2023-04-16T09:51:37.824Z,65.54
2023-04-16T09:54:06.064Z,66.03
2023-04-16T09:56:33.593Z,66.88
2023-04-16T09:59:01.538Z,65.83
2023-04-16T10:01:29.183Z,65.42
2023-04-16T10:03:56.709Z,64.83
2023-04-16T10:06:27.128Z,65.51
2023-04-16T10:08:57.049Z,67.28
2023-04-16T10:11:25.110Z,66.26
2023-04-16T10:13:52.544Z,66.63
2023-04-16T10:16:20.071Z,66.62
2023-04-16T10:18:47.979Z,66.30
2023-04-16T10:21:16.306Z,64.48
2023-04-16T10:23:44.820Z,63.61
2023-04-16T10:26:14.719Z,64.88
2023-04-16T10:28:43.109Z,62.78
2023-04-16T10:31:10.541Z,65.17
2023-04-16T10:33:41.283Z,64.59
2023-04-16T10:36:10.737Z,63.94
2023-04-16T10:38:46.069Z,62.74
2023-04-16T10:41:14.929Z,61.39
2023-04-16T10:43:44.463Z,60.77
2023-04-16T10:46:22.924Z,63.11
2023-04-16T10:48:53.429Z,61.97
2023-04-16T10:51:32.285Z,61.60
2023-04-16T10:54:05.447Z,60.19
2023-04-16T10:56:34.918Z,60.69
2023-04-16T10:59:05.218Z,61.58
2023-04-16T11:01:34.633Z,62.08
2023-04-16T11:04:22.775Z,62.12
2023-04-16T11:07:02.872Z,60.68
2023-04-16T11:09:47.978Z,61.19
2023-04-16T11:12:19.298Z,61.09
2023-04-16T11:14:50.121Z,60.78
2023-04-16T11:17:17.591Z,60.52
2023-04-16T11:19:45.251Z,62.05
2023-04-16T11:22:17.381Z,59.64
2023-04-16T11:24:45.879Z,59.50
2023-04-16T11:27:14.311Z,60.01
2023-04-16T11:29:45.126Z,60.12
2023-04-16T11:32:21.608Z,60.09
2023-04-16T11:34:49.121Z,60.28
2023-04-16T11:37:16.728Z,60.08
2023-04-16T11:39:51.909Z,59.80
2023-04-16T11:42:23.614Z,59.64
2023-04-16T11:44:57.009Z,59.86
2023-04-16T11:47:25.487Z,56.80
2023-04-16T11:49:53.118Z,58.40
2023-04-16T11:52:28.222Z,57.45
2023-04-16T11:54:55.768Z,55.77
2023-04-16T11:57:27.583Z,55.39
2023-04-16T12:00:01.791Z,56.42
2023-04-16T12:02:41.245Z,55.27
2023-04-16T12:05:28.332Z,57.54
2023-04-16T12:07:55.839Z,57.61
2023-04-16T12:10:23.628Z,55.56
2023-04-16T12:12:51.840Z,54.66
2023-04-16T12:15:20.660Z,51.56
2023-04-16T12:17:48.876Z,51.13
2023-04-16T12:20:16.586Z,52.54
2023-04-16T12:22:46.726Z,54.17
2023-04-16T12:25:16.321Z,52.06
2023-04-16T12:27:46.410Z,52.46
2023-04-16T12:30:14.578Z,53.64
2023-04-16T12:32:44.522Z,50.65
2023-04-16T12:35:12.857Z,52.88
2023-04-16T12:37:41.179Z,50.62
2023-04-16T12:40:09.690Z,48.76
2023-04-16T12:42:37.133Z,47.92
2023-04-16T12:45:05.581Z,49.92
2023-04-16T12:47:33.456Z,49.62
2023-04-16T12:50:06.059Z,53.37
2023-04-16T12:52:33.484Z,50.57
2023-04-16T12:55:02.733Z,49.07
2023-04-16T12:57:30.132Z,48.78
2023-04-16T12:59:57.871Z,52.86
2023-04-16T13:02:25.978Z,51.78
2023-04-16T13:04:54.481Z,50.15
2023-04-16T13:07:24.179Z,51.63
2023-04-16T13:09:51.654Z,51.10
2023-04-16T13:12:21.054Z,51.73
2023-04-16T13:14:48.457Z,51.10
2023-04-16T13:17:16.077Z,52.58
2023-04-16T13:19:43.897Z,53.05
2023-04-16T13:22:11.355Z,52.03
2023-04-16T13:24:40.276Z,51.90
2023-04-16T13:27:08.465Z,52.13
2023-04-16T13:29:36.861Z,53.18
2023-04-16T13:32:04.825Z,52.46
2023-04-16T13:34:32.349Z,53.84
2023-04-16T13:36:59.695Z,53.01
2023-04-16T13:39:27.157Z,53.27
2023-04-16T13:41:55.852Z,54.61
2023-04-16T13:44:26.318Z,54.96
2023-04-16T13:46:53.846Z,53.69
2023-04-16T13:49:21.386Z,52.86
2023-04-16T13:51:48.782Z,51.67
2023-04-16T13:54:16.143Z,53.21
2023-04-16T13:56:47.807Z,58.53
2023-04-16T13:59:16.678Z,58.81
2023-04-16T14:01:44.109Z,59.66
2023-04-16T14:04:11.536Z,59.48
2023-04-16T14:06:38.953Z,62.74
2023-04-16T14:09:06.754Z,62.49
2023-04-16T14:11:38.052Z,62.20
2023-04-16T14:14:05.970Z,62.89
2023-04-16T14:19:27.260Z,62.67
2023-04-16T14:21:54.609Z,62.67
2023-04-16T14:24:22.030Z,62.52
2023-04-16T14:26:49.438Z,61.71
2023-04-16T14:29:16.884Z,61.99
2023-04-16T14:31:45.693Z,63.74
2023-04-16T14:34:13.122Z,66.73
2023-04-16T14:36:44.069Z,67.35
2023-04-16T14:39:11.676Z,69.92
2023-04-16T14:41:39.313Z,71.87
2023-04-16T14:44:06.857Z,74.84
2023-04-16T14:46:34.531Z,78.62
2023-04-16T14:49:03.218Z,81.33
2023-04-16T14:51:31.363Z,88.37
2023-04-16T14:53:58.801Z,89.29
2023-04-16T14:56:26.796Z,90.13
2023-04-16T14:58:58.024Z,93.31
2023-04-16T15:01:26.048Z,94.12
2023-04-16T15:03:55.956Z,95.42
2023-04-16T15:06:24.957Z,93.68
2023-04-16T15:08:52.467Z,92.61
2023-04-16T15:11:19.982Z,93.46
2023-04-16T15:13:47.471Z,93.36
2023-04-16T15:16:14.893Z,94.65
2023-04-16T15:18:42.331Z,96.00
2023-04-16T15:21:12.330Z,95.76
2023-04-16T15:23:41.593Z,95.95
2023-04-16T15:26:09.152Z,92.63
2023-04-16T15:28:36.617Z,92.04
2023-04-16T15:31:04.167Z,91.76
2023-04-16T15:33:31.732Z,90.48
2023-04-16T15:35:59.120Z,92.03
2023-04-16T15:38:26.544Z,92.03
2023-04-16T15:40:55.280Z,91.56
2023-04-16T15:43:23.032Z,91.76
2023-04-16T15:45:50.427Z,89.85
2023-04-16T15:48:17.825Z,88.99
2023-04-16T15:50:45.344Z,88.41
2023-04-16T15:53:12.814Z,89.26
2023-04-16T15:55:40.271Z,89.74
2023-04-16T15:58:09.601Z,89.05
2023-04-16T16:00:37.136Z,90.14
2023-04-16T16:03:04.719Z,89.47
2023-04-16T16:05:36.009Z,90.58
2023-04-16T16:08:03.428Z,88.94
2023-04-16T16:10:30.867Z,90.28
2023-04-16T16:13:05.003Z,90.58
2023-04-16T16:15:33.854Z,91.36
2023-04-16T16:18:01.711Z,90.62
2023-04-16T16:20:29.656Z,91.07
2023-04-16T16:22:57.009Z,91.95
2023-04-16T16:25:24.587Z,92.96
2023-04-16T16:27:52.845Z,91.58
2023-04-16T16:30:20.516Z,91.28
2023-04-16T16:32:49.242Z,91.13
2023-04-16T16:35:16.632Z,90.65
2023-04-16T16:37:44.017Z,89.85
2023-04-16T16:40:12.140Z,91.78
2023-04-16T16:42:39.569Z,89.73
2023-04-16T16:45:07.903Z,91.17
2023-04-16T16:47:35.600Z,92.39
2023-04-16T16:50:05.322Z,93.70
2023-04-16T16:52:33.549Z,95.42
2023-04-16T16:55:01.329Z,94.79
2023-04-16T16:57:31.978Z,95.37
2023-04-16T16:59:59.370Z,96.21
2023-04-16T17:02:26.876Z,96.34
2023-04-16T17:04:54.877Z,95.08
2023-04-16T17:07:23.552Z,94.68
2023-04-16T17:09:51.142Z,94.34
2023-04-16T17:12:18.572Z,96.85
2023-04-16T17:14:50.918Z,96.11
2023-04-16T17:17:18.408Z,96.49
2023-04-16T17:19:45.875Z,94.18
2023-04-16T17:22:13.234Z,93.96
2023-04-16T17:24:41.971Z,93.62
2023-04-16T17:27:13.008Z,93.53
2023-04-16T17:29:40.409Z,94.18
2023-04-16T17:32:07.849Z,94.13
2023-04-16T17:34:35.612Z,95.27
2023-04-16T17:37:02.991Z,94.33
2023-04-16T17:39:30.400Z,96.31
2023-04-16T17:42:01.622Z,96.49
2023-04-16T17:44:28.965Z,97.97
2023-04-16T17:46:56.350Z,98.93
2023-04-16T17:49:23.747Z,97.96
2023-04-16T17:51:51.101Z,96.19
2023-04-16T17:54:18.531Z,95.90
2023-04-16T17:56:46.389Z,97.57
2023-04-16T17:59:15.133Z,96.67
2023-04-16T18:01:42.549Z,97.91
2023-04-16T18:04:10.735Z,99.33
2023-04-16T18:06:38.543Z,100.00
2023-04-16T18:09:06.525Z,100.00
2023-04-16T18:11:34.003Z,100.00
2023-04-16T18:14:01.359Z,100.00
2023-04-16T18:16:30.207Z,100.00
2023-04-16T18:18:57.596Z,100.00
2023-04-16T18:21:24.953Z,100.00
2023-04-16T18:23:52.482Z,100.00
2023-04-16T18:26:22.963Z,100.00
2023-04-16T18:28:50.546Z,100.00
2023-04-16T18:31:20.847Z,100.00
2023-04-16T18:33:57.301Z,100.00
2023-04-16T18:36:25.940Z,100.00
2023-04-16T18:39:01.502Z,100.00
2023-04-16T18:41:30.664Z,100.00
2023-04-16T18:44:01.955Z,100.00
2023-04-16T18:46:29.428Z,100.00
2023-04-16T18:49:01.964Z,100.00
2023-04-16T18:51:29.328Z,100.00
2023-04-16T18:53:56.775Z,100.00
2023-04-16T18:56:24.148Z,100.00
2023-04-16T18:58:51.671Z,100.00
2023-04-16T19:01:23.112Z,100.00
2023-04-16T19:03:54.032Z,100.00
2023-04-16T19:06:25.968Z,100.00
2023-04-16T19:08:53.382Z,100.00
2023-04-16T19:11:20.826Z,100.00
2023-04-16T19:13:48.628Z,100.00
2023-04-16T19:16:16.855Z,100.00
2023-04-16T19:18:44.268Z,100.00
2023-04-16T19:21:11.870Z,100.00
2023-04-16T19:23:40.572Z,100.00
2023-04-16T19:26:07.981Z,100.00
2023-04-16T19:28:35.520Z,100.00
2023-04-16T19:31:02.966Z,100.00
2023-04-16T19:33:31.330Z,100.00
2023-04-16T19:35:58.813Z,100.00
2023-04-16T19:38:26.197Z,100.00
2023-04-16T19:40:55.234Z,100.00
2023-04-16T19:43:25.970Z,100.00
2023-04-16T19:45:55.032Z,100.00
2023-04-16T19:48:22.607Z,100.00
2023-04-16T19:50:50.010Z,100.00
2023-04-16T19:53:17.623Z,100.00
2023-04-16T19:55:45.165Z,100.00
2023-04-16T19:58:14.572Z,100.00
2023-04-16T20:00:42.184Z,100.00
2023-04-16T20:03:10.266Z,100.00
2023-04-16T20:05:37.654Z,100.00
2023-04-16T20:08:05.497Z,100.00
2023-04-16T20:10:33.198Z,100.00
2023-04-16T20:13:00.733Z,100.00
2023-04-16T20:15:29.529Z,100.00
2023-04-16T20:17:56.975Z,100.00
2023-04-16T20:20:24.443Z,100.00
2023-04-16T20:22:51.853Z,100.00
2023-04-16T20:25:19.812Z,100.00
2023-04-16T20:27:47.215Z,100.00
2023-04-16T20:30:15.182Z,100.00
2023-04-16T20:32:44.009Z,100.00
2023-04-16T20:35:12.114Z,100.00
2023-04-16T20:37:41.844Z,100.00
2023-04-16T20:40:10.651Z,100.00
2023-04-16T20:42:38.130Z,100.00
2023-04-16T21:02:03.203Z,100.00
2023-04-16T21:04:30.998Z,100.00
2023-04-16T21:06:58.497Z,100.00
2023-04-16T21:09:25.949Z,100.00
2023-04-16T21:11:53.324Z,100.00
2023-04-16T21:14:20.801Z,100.00
2023-04-16T21:16:48.208Z,100.00
2023-04-16T21:19:16.918Z,100.00
2023-04-16T21:21:44.294Z,100.00
2023-04-16T21:24:11.664Z,100.00
2023-04-16T21:26:39.045Z,100.00
2023-04-16T21:29:06.460Z,100.00
2023-04-16T21:31:33.897Z,100.00
2023-04-16T21:34:01.299Z,100.00
2023-04-16T21:36:31.948Z,100.00
2023-04-16T21:38:59.358Z,100.00
2023-04-16T21:41:26.781Z,100.00
2023-04-16T21:43:54.158Z,100.00
2023-04-16T21:46:21.680Z,100.00
2023-04-16T21:48:49.652Z,100.00
2023-04-16T21:51:17.975Z,100.00
2023-04-16T21:53:46.896Z,100.00
2023-04-16T21:56:14.786Z,100.00
2023-04-16T21:58:42.205Z,100.00
2023-04-16T22:01:10.967Z,100.00
2023-04-16T22:03:40.277Z,100.00
2023-04-16T22:06:08.682Z,100.00
2023-04-16T22:08:36.053Z,100.00
2023-04-16T22:11:04.743Z,100.00
2023-04-16T22:13:33.064Z,100.00
2023-04-16T22:16:02.053Z,100.00
2023-04-16T22:18:32.661Z,100.00
2023-04-16T22:21:00.220Z,100.00
2023-04-16T22:23:27.613Z,100.00
2023-04-16T22:25:56.701Z,100.00
2023-04-16T22:28:25.374Z,100.00
2023-04-16T22:30:52.745Z,100.00
2023-04-16T22:33:20.264Z,100.00
2023-04-16T22:35:47.636Z,100.00
2023-04-16T22:38:16.391Z,100.00
2023-04-16T22:40:43.783Z,100.00
2023-04-16T22:43:11.219Z,100.00
2023-04-16T22:45:41.067Z,100.00
2023-04-16T22:48:08.502Z,100.00
2023-04-16T22:50:35.924Z,100.00
2023-04-16T22:53:03.353Z,100.00
2023-04-16T22:55:30.963Z,100.00
2023-04-16T22:57:58.381Z,100.00
2023-04-16T23:00:25.792Z,100.00
2023-04-16T23:02:54.582Z,100.00
2023-04-16T23:05:22.181Z,100.00
2023-04-16T23:07:49.550Z,100.00
2023-04-16T23:10:17.174Z,100.00
2023-04-16T23:12:44.539Z,100.00
2023-04-16T23:15:12.299Z,100.00
2023-04-16T23:17:39.720Z,100.00
2023-04-16T23:20:10.025Z,100.00
2023-04-16T23:22:37.409Z,100.00
2023-04-16T23:25:05.385Z,100.00
2023-04-16T23:27:33.160Z,100.00
2023-04-16T23:30:00.592Z,100.00
2023-04-16T23:32:28.180Z,100.00
2023-04-16T23:34:55.605Z,100.00
2023-04-16T23:37:24.314Z,100.00
2023-04-16T23:39:51.708Z,100.00
2023-04-16T23:42:19.675Z,100.00
2023-04-16T23:44:47.128Z,100.00
2023-04-16T23:47:14.487Z,100.00
2023-04-16T23:49:41.891Z,100.00
2023-04-16T23:52:09.291Z,100.00
2023-04-16T23:54:38.008Z,100.00
2023-04-16T23:57:05.611Z,100.00
2023-04-16T23:59:32.958Z,100.00
